createdAt,value
2022-08-03T00:00:27.207Z,98.50
2022-08-03T00:02:54.073Z,98.50
2022-08-03T00:05:21.102Z,98.50
2022-08-03T00:07:48.619Z,98.50
2022-08-03T00:10:17.298Z,98.50
2022-08-03T00:12:44.208Z,98.50
2022-08-03T00:15:14.994Z,98.50
2022-08-03T00:17:53.417Z,98.50
2022-08-03T00:20:24.304Z,98.50
2022-08-03T00:22:51.411Z,98.50
2022-08-03T00:25:18.509Z,98.50
2022-08-03T00:27:45.571Z,98.50
2022-08-03T00:30:15.221Z,98.50
2022-08-03T00:32:44.321Z,98.50
2022-08-03T00:35:18.055Z,98.50
2022-08-03T00:37:59.057Z,98.50
2022-08-03T00:40:25.894Z,98.50
2022-08-03T00:43:00.817Z,98.50
2022-08-03T00:45:29.955Z,98.20
2022-08-03T00:47:57.411Z,97.90
2022-08-03T00:50:26.182Z,97.80
2022-08-03T00:52:56.827Z,97.70
2022-08-03T00:55:24.601Z,97.60
2022-08-03T00:57:51.920Z,97.80
2022-08-03T01:00:21.597Z,98.10
2022-08-03T01:02:49.784Z,98.00
2022-08-03T01:05:16.728Z,97.80
2022-08-03T01:08:04.118Z,97.80
2022-08-03T01:10:45.466Z,97.60
2022-08-03T01:14:01.558Z,97.50
2022-08-03T01:16:36.621Z,97.70
2022-08-03T01:19:35.686Z,98.00
2022-08-03T01:22:17.589Z,98.20
2022-08-03T01:24:53.790Z,98.50
2022-08-03T01:27:31.247Z,98.30
2022-08-03T01:30:05.260Z,98.50
2022-08-03T01:33:00.339Z,98.50
2022-08-03T01:36:07.416Z,98.50
2022-08-03T01:38:43.315Z,98.50
2022-08-03T01:41:15.566Z,98.50
2022-08-03T01:44:28.606Z,98.50
2022-08-03T01:46:33.429Z,98.50
2022-08-03T01:49:01.185Z,98.50
2022-08-03T01:51:57.839Z,98.50
2022-08-03T01:54:26.296Z,98.50
2022-08-03T01:56:56.641Z,98.50
2022-08-03T01:59:25.777Z,98.50
2022-08-03T02:02:16.065Z,98.50
2022-08-03T02:04:43.912Z,98.50
2022-08-03T02:07:11.733Z,98.50
2022-08-03T02:09:40.681Z,98.50
2022-08-03T02:12:12.200Z,98.50
2022-08-03T02:14:41.456Z,98.00
2022-08-03T02:17:09.552Z,97.80
2022-08-03T02:19:37.695Z,97.90
2022-08-03T02:22:08.258Z,97.50
2022-08-03T02:24:35.039Z,97.50
2022-08-03T02:27:06.117Z,97.50
2022-08-03T02:29:40.333Z,98.10
2022-08-03T02:32:14.386Z,98.10
2022-08-03T02:34:45.069Z,98.50
2022-08-03T02:37:12.877Z,98.50
2022-08-03T02:39:42.077Z,98.50
2022-08-03T02:42:12.691Z,98.50
2022-08-03T02:44:40.426Z,98.50
2022-08-03T02:47:10.406Z,98.50
2022-08-03T02:49:49.811Z,98.50
2022-08-03T02:52:20.409Z,98.50
2022-08-03T02:54:51.003Z,98.50
2022-08-03T02:57:19.424Z,98.50
2022-08-03T02:59:47.110Z,98.50
2022-08-03T03:02:16.152Z,98.50
2022-08-03T03:05:53.401Z,98.50
2022-08-03T03:07:33.934Z,98.50
2022-08-03T03:10:13.680Z,98.50
2022-08-03T03:12:42.014Z,98.50
2022-08-03T03:15:09.188Z,98.50
2022-08-03T03:17:37.466Z,98.50
2022-08-03T03:20:05.919Z,98.50
2022-08-03T03:22:34.292Z,98.50
2022-08-03T03:25:01.894Z,98.50
2022-08-03T03:27:29.092Z,98.50
2022-08-03T03:29:57.763Z,98.50
2022-08-03T03:32:26.240Z,98.50
2022-08-03T03:34:54.232Z,98.50
2022-08-03T03:37:23.028Z,98.50
2022-08-03T03:39:49.739Z,98.50
2022-08-03T03:42:16.721Z,98.50
2022-08-03T03:44:43.641Z,98.50
2022-08-03T03:47:10.336Z,98.50
2022-08-03T03:49:37.802Z,98.50
2022-08-03T03:52:04.768Z,98.50
2022-08-03T03:54:42.603Z,98.50
2022-08-03T03:57:10.452Z,98.50
2022-08-03T03:59:41.630Z,98.50
2022-08-03T04:02:09.642Z,98.50
2022-08-03T04:04:55.770Z,98.50
2022-08-03T04:07:43.238Z,98.50
2022-08-03T04:10:54.843Z,98.50
2022-08-03T04:13:22.871Z,98.50
2022-08-03T04:15:50.594Z,98.50
2022-08-03T04:18:18.047Z,98.50
2022-08-03T04:20:48.765Z,98.50
2022-08-03T04:23:17.542Z,98.50
2022-08-03T04:25:44.388Z,98.50
2022-08-03T04:28:30.604Z,98.50
2022-08-03T04:31:01.202Z,98.50
2022-08-03T04:33:30.728Z,98.50
2022-08-03T04:36:02.636Z,98.50
2022-08-03T04:38:33.099Z,98.50
2022-08-03T04:41:00.997Z,98.50
2022-08-03T04:43:29.325Z,98.50
2022-08-03T04:45:57.214Z,98.50
2022-08-03T04:48:24.511Z,98.50
2022-08-03T04:50:51.720Z,98.50
2022-08-03T04:53:19.530Z,98.50
2022-08-03T04:55:46.449Z,98.50
2022-08-03T04:58:13.080Z,98.50
2022-08-03T05:00:39.790Z,98.50
2022-08-03T05:03:20.468Z,98.50
2022-08-03T05:05:53.087Z,98.50
2022-08-03T05:08:28.940Z,98.50
2022-08-03T05:10:59.155Z,98.50
2022-08-03T05:13:26.147Z,98.50
2022-08-03T05:15:52.905Z,98.50
2022-08-03T05:18:19.800Z,98.50
2022-08-03T05:20:46.452Z,98.00
2022-08-03T05:23:13.146Z,97.50
2022-08-03T05:25:39.845Z,97.20
2022-08-03T05:28:12.855Z,96.10
2022-08-03T05:30:39.617Z,93.90
2022-08-03T05:33:06.348Z,93.80
2022-08-03T05:36:01.319Z,93.40
2022-08-03T05:38:28.210Z,92.20
2022-08-03T05:41:22.197Z,91.50
2022-08-03T05:43:45.068Z,91.40
2022-08-03T05:46:13.226Z,91.20
2022-08-03T05:48:40.487Z,91.00
2022-08-03T05:51:11.209Z,92.00
2022-08-03T05:53:38.498Z,90.90
2022-08-03T05:56:15.130Z,91.10
2022-08-03T05:58:44.583Z,90.30
2022-08-03T06:01:11.778Z,90.10
2022-08-03T06:03:38.483Z,89.60
2022-08-03T06:06:05.207Z,88.10
2022-08-03T06:08:31.965Z,89.00
2022-08-03T06:10:58.793Z,88.40
2022-08-03T06:13:25.463Z,88.70
2022-08-03T06:15:52.288Z,87.60
2022-08-03T06:18:19.005Z,86.60
2022-08-03T06:20:47.065Z,85.60
2022-08-03T06:23:17.667Z,86.00
2022-08-03T06:25:45.131Z,86.90
2022-08-03T06:28:35.397Z,86.60
2022-08-03T06:31:01.096Z,85.90
2022-08-03T06:33:48.476Z,85.40
2022-08-03T06:36:15.130Z,84.80
2022-08-03T06:38:41.830Z,83.40
2022-08-03T06:41:08.470Z,84.40
2022-08-03T06:43:37.657Z,83.80
2022-08-03T06:46:05.613Z,82.60
2022-08-03T06:48:32.477Z,83.00
2022-08-03T06:50:59.303Z,81.70
2022-08-03T06:53:26.251Z,82.20
2022-08-03T06:55:55.079Z,82.70
2022-08-03T06:58:22.712Z,83.30
2022-08-03T07:00:49.504Z,82.60
2022-08-03T07:03:16.734Z,81.90
2022-08-03T07:05:45.624Z,79.90
2022-08-03T07:08:12.415Z,81.20
2022-08-03T07:10:39.297Z,81.90
2022-08-03T07:13:06.244Z,81.60
2022-08-03T07:15:53.999Z,81.10
2022-08-03T07:18:29.210Z,80.70
2022-08-03T07:20:57.407Z,80.10
2022-08-03T07:23:24.240Z,78.90
2022-08-03T07:25:51.065Z,77.50
2022-08-03T07:28:17.953Z,77.60
2022-08-03T07:30:44.669Z,78.10
2022-08-03T07:33:11.550Z,78.20
2022-08-03T07:35:38.583Z,78.40
2022-08-03T07:38:05.760Z,77.00
2022-08-03T07:40:32.925Z,76.90
2022-08-03T07:43:00.407Z,76.00
2022-08-03T07:45:27.118Z,75.40
2022-08-03T07:47:54.353Z,75.60
2022-08-03T07:50:22.303Z,74.60
2022-08-03T07:52:50.028Z,75.20
2022-08-03T07:55:22.313Z,75.20
2022-08-03T07:58:12.251Z,76.50
2022-08-03T08:00:39.429Z,75.90
2022-08-03T08:03:06.308Z,74.70
2022-08-03T08:05:33.911Z,74.30
2022-08-03T08:08:04.731Z,74.70
2022-08-03T08:10:32.858Z,75.40
2022-08-03T08:12:59.879Z,75.40
2022-08-03T08:15:26.570Z,74.20
2022-08-03T08:17:56.351Z,74.50
2022-08-03T08:20:30.514Z,73.50
2022-08-03T08:23:03.534Z,74.00
2022-08-03T08:25:46.581Z,72.60
2022-08-03T08:28:30.528Z,72.90
2022-08-03T08:31:00.003Z,72.60
2022-08-03T08:33:37.236Z,72.90
2022-08-03T08:36:14.815Z,73.10
2022-08-03T08:38:42.649Z,72.00
2022-08-03T08:41:11.391Z,71.20
2022-08-03T08:43:38.305Z,71.50
2022-08-03T08:46:08.190Z,71.00
2022-08-03T08:48:40.264Z,70.10
2022-08-03T08:51:08.898Z,71.60
2022-08-03T08:53:37.632Z,68.60
2022-08-03T08:56:05.365Z,69.00
2022-08-03T08:58:38.658Z,66.80
2022-08-03T09:01:05.866Z,70.50
2022-08-03T09:03:36.036Z,68.60
2022-08-03T09:06:03.820Z,66.10
2022-08-03T09:08:33.960Z,66.40
2022-08-03T09:11:01.845Z,65.70
2022-08-03T09:13:29.312Z,66.00
2022-08-03T09:16:22.192Z,66.80
2022-08-03T09:18:55.542Z,64.00
2022-08-03T09:21:32.784Z,63.00
2022-08-03T09:24:04.164Z,63.30
2022-08-03T09:26:32.340Z,62.30
2022-08-03T09:29:06.000Z,61.90
2022-08-03T09:31:43.207Z,63.00
2022-08-03T09:34:16.080Z,63.80
2022-08-03T09:36:45.922Z,64.20
2022-08-03T09:39:40.683Z,63.90
2022-08-03T09:42:14.658Z,62.10
2022-08-03T09:44:46.927Z,62.30
2022-08-03T09:47:15.636Z,62.40
2022-08-03T09:49:55.967Z,62.00
2022-08-03T09:52:39.050Z,62.90
2022-08-03T09:55:23.557Z,63.00
2022-08-03T09:58:09.416Z,64.10
2022-08-03T10:00:56.896Z,61.80
2022-08-03T10:03:25.155Z,62.00
2022-08-03T10:05:57.490Z,61.40
2022-08-03T10:08:26.229Z,61.30
2022-08-03T10:10:58.590Z,61.60
2022-08-03T10:13:25.607Z,60.30
2022-08-03T10:16:22.546Z,61.00
2022-08-03T10:18:38.963Z,61.80
2022-08-03T10:21:10.334Z,60.90
2022-08-03T10:23:38.766Z,60.30
2022-08-03T10:26:08.172Z,59.10
2022-08-03T10:28:44.696Z,59.10
2022-08-03T10:31:14.235Z,58.60
2022-08-03T10:33:50.971Z,60.60
2022-08-03T10:36:22.894Z,59.50
2022-08-03T10:38:53.158Z,57.30
2022-08-03T10:41:26.784Z,57.80
2022-08-03T10:44:02.238Z,58.00
2022-08-03T10:46:29.289Z,58.50
2022-08-03T10:48:57.371Z,59.80
2022-08-03T10:51:24.989Z,60.30
2022-08-03T10:53:55.409Z,60.30
2022-08-03T10:56:53.426Z,59.60
2022-08-03T10:59:47.308Z,56.70
2022-08-03T11:02:17.909Z,57.60
2022-08-03T11:04:47.354Z,57.80
2022-08-03T11:07:20.699Z,57.60
2022-08-03T11:09:49.994Z,57.30
2022-08-03T11:12:31.406Z,55.70
2022-08-03T11:15:08.878Z,56.60
2022-08-03T11:17:46.252Z,55.60
2022-08-03T11:20:46.024Z,56.80
2022-08-03T11:23:13.345Z,57.10
2022-08-03T11:26:10.775Z,58.00
2022-08-03T11:28:39.004Z,56.40
2022-08-03T11:31:51.695Z,55.90
2022-08-03T11:34:18.742Z,55.70
2022-08-03T11:37:24.597Z,55.70
2022-08-03T11:39:55.345Z,56.70
2022-08-03T11:42:26.218Z,55.70
2022-08-03T11:44:56.770Z,56.70
2022-08-03T11:47:26.954Z,57.10
2022-08-03T11:50:00.255Z,57.00
2022-08-03T11:52:29.007Z,56.80
2022-08-03T11:54:56.413Z,55.20
2022-08-03T11:59:12.805Z,55.00
2022-08-03T12:00:31.290Z,55.60
2022-08-03T12:03:09.622Z,57.00
2022-08-03T12:05:51.151Z,55.80
2022-08-03T12:08:28.171Z,56.70
2022-08-03T12:10:56.700Z,56.80
2022-08-03T12:14:26.825Z,56.40
2022-08-03T12:16:19.557Z,56.20
2022-08-03T12:18:54.991Z,55.20
2022-08-03T12:21:24.567Z,55.40
2022-08-03T12:23:51.596Z,55.40
2022-08-03T12:26:18.287Z,55.40
2022-08-03T12:28:49.968Z,54.70
2022-08-03T12:31:16.974Z,54.40
2022-08-03T12:33:58.965Z,55.90
2022-08-03T12:36:26.900Z,55.70
2022-08-03T12:39:07.885Z,56.60
2022-08-03T12:41:39.757Z,55.30
2022-08-03T12:44:08.413Z,55.10
2022-08-03T12:46:47.390Z,55.50
2022-08-03T12:49:17.131Z,54.40
2022-08-03T12:51:43.811Z,55.30
2022-08-03T12:54:26.352Z,54.50
2022-08-03T12:57:04.393Z,55.50
2022-08-03T12:59:35.277Z,54.60
2022-08-03T13:02:16.656Z,54.60
2022-08-03T13:04:45.849Z,54.20
2022-08-03T13:07:14.460Z,54.20
2022-08-03T13:09:49.637Z,53.40
2022-08-03T13:12:21.829Z,51.80
2022-08-03T13:14:51.946Z,51.80
2022-08-03T13:17:19.486Z,52.20
2022-08-03T13:19:47.744Z,52.40
2022-08-03T13:22:26.062Z,51.60
2022-08-03T13:24:57.798Z,52.40
2022-08-03T13:28:03.565Z,52.60
2022-08-03T13:30:12.480Z,52.10
2022-08-03T13:32:39.631Z,52.30
2022-08-03T13:35:07.544Z,52.00
2022-08-03T13:37:34.681Z,52.40
2022-08-03T13:40:04.784Z,52.40
2022-08-03T13:42:39.073Z,52.30
2022-08-03T13:45:06.502Z,52.30
2022-08-03T13:47:33.181Z,51.80
2022-08-03T13:50:02.848Z,51.80
2022-08-03T13:52:32.396Z,51.90
2022-08-03T13:54:59.798Z,52.30
2022-08-03T13:58:03.795Z,51.50
2022-08-03T14:00:16.105Z,51.60
2022-08-03T14:02:55.346Z,51.90
2022-08-03T14:05:25.216Z,51.60
2022-08-03T14:07:51.967Z,51.50
2022-08-03T14:10:23.503Z,51.40
2022-08-03T14:12:50.181Z,51.10
2022-08-03T14:15:16.877Z,50.70
2022-08-03T14:17:49.990Z,50.80
2022-08-03T14:20:38.836Z,49.70
2022-08-03T14:23:03.780Z,50.00
2022-08-03T14:25:31.629Z,49.70
2022-08-03T14:28:10.372Z,50.40
2022-08-03T14:30:37.367Z,49.80
2022-08-03T14:33:04.080Z,50.50
2022-08-03T14:35:30.783Z,51.40
2022-08-03T14:37:57.424Z,50.00
2022-08-03T14:40:24.216Z,50.10
2022-08-03T14:42:50.893Z,50.60
2022-08-03T14:45:19.934Z,51.00
2022-08-03T14:50:29.294Z,50.70
2022-08-03T14:50:42.016Z,50.70
2022-08-03T14:53:09.868Z,51.70
2022-08-03T14:55:38.014Z,51.40
2022-08-03T14:58:18.604Z,51.50
2022-08-03T15:00:48.912Z,50.90
2022-08-03T15:03:17.015Z,50.80
2022-08-03T15:05:44.591Z,51.30
2022-08-03T15:08:11.345Z,51.10
2022-08-03T15:10:44.535Z,50.60
2022-08-03T15:13:12.929Z,51.00
2022-08-03T15:15:40.710Z,50.60
2022-08-03T15:18:07.648Z,51.10
2022-08-03T15:20:49.631Z,51.40
2022-08-03T15:23:17.975Z,51.80
2022-08-03T15:26:28.198Z,51.80
2022-08-03T15:28:32.818Z,51.40
2022-08-03T15:30:59.878Z,51.80
2022-08-03T15:33:26.613Z,51.50
2022-08-03T15:35:53.584Z,51.70
2022-08-03T15:38:26.043Z,52.50
2022-08-03T15:40:54.544Z,53.70
2022-08-03T15:43:22.240Z,53.50
2022-08-03T15:45:54.613Z,53.60
2022-08-03T15:48:35.641Z,54.50
2022-08-03T15:51:02.367Z,54.60
2022-08-03T15:53:29.098Z,54.70
2022-08-03T15:55:55.755Z,55.20
2022-08-03T15:59:07.661Z,55.40
2022-08-03T16:01:09.297Z,55.20
2022-08-03T16:03:36.040Z,55.90
2022-08-03T16:06:04.315Z,56.60
2022-08-03T16:08:31.774Z,56.60
2022-08-03T16:10:58.855Z,57.00
2022-08-03T16:14:13.612Z,57.50
2022-08-03T16:16:13.826Z,57.40
2022-08-03T16:18:40.976Z,57.30
2022-08-03T16:21:07.670Z,57.70
2022-08-03T16:23:39.595Z,58.40
2022-08-03T16:26:09.449Z,59.10
2022-08-03T16:28:38.099Z,58.10
2022-08-03T16:31:06.163Z,58.50
2022-08-03T16:33:33.246Z,58.20
2022-08-03T16:35:59.997Z,57.80
2022-08-03T16:38:26.639Z,58.40
2022-08-03T16:40:53.365Z,59.20
2022-08-03T16:43:22.101Z,59.20
2022-08-03T16:45:49.198Z,59.10
2022-08-03T16:48:16.866Z,59.20
2022-08-03T16:50:44.449Z,58.70
2022-08-03T16:53:15.642Z,59.20
2022-08-03T16:55:53.164Z,58.90
2022-08-03T16:58:34.253Z,59.60
2022-08-03T17:01:20.765Z,60.00
2022-08-03T17:04:02.117Z,60.30
2022-08-03T17:06:36.053Z,60.80
2022-08-03T17:09:09.482Z,60.70
2022-08-03T17:11:46.833Z,60.60
2022-08-03T17:14:21.788Z,60.50
2022-08-03T17:16:52.597Z,60.40
2022-08-03T17:19:23.207Z,60.60
2022-08-03T17:22:01.406Z,61.00
2022-08-03T17:24:41.414Z,60.60
2022-08-03T17:27:18.490Z,61.30
2022-08-03T17:30:01.477Z,60.90
2022-08-03T17:32:32.529Z,61.60
2022-08-03T17:35:00.852Z,61.10
2022-08-03T17:37:58.555Z,61.40
2022-08-03T17:40:17.614Z,61.70
2022-08-03T17:42:46.210Z,62.00
2022-08-03T17:45:17.899Z,62.00
2022-08-03T17:47:46.111Z,62.00
2022-08-03T17:50:33.776Z,62.10
2022-08-03T17:53:23.698Z,61.70
2022-08-03T17:56:40.838Z,62.50
2022-08-03T17:59:51.285Z,62.80
2022-08-03T18:02:51.570Z,62.70
2022-08-03T18:05:21.999Z,64.00
2022-08-03T18:07:59.051Z,63.60
2022-08-03T18:10:28.262Z,63.90
2022-08-03T18:13:02.860Z,64.40
2022-08-03T18:15:58.928Z,64.80
2022-08-03T18:18:43.585Z,64.90
2022-08-03T18:21:17.113Z,65.40
2022-08-03T18:23:45.911Z,65.80
2022-08-03T18:26:17.225Z,65.80
2022-08-03T18:28:44.683Z,66.30
2022-08-03T18:31:33.156Z,66.60
2022-08-03T18:34:16.704Z,66.40
2022-08-03T18:36:50.332Z,67.00
2022-08-03T18:39:20.567Z,67.20
2022-08-03T18:41:47.276Z,67.30
2022-08-03T18:44:52.659Z,68.40
2022-08-03T18:47:17.406Z,68.00
2022-08-03T18:49:46.827Z,68.50
2022-08-03T18:52:22.817Z,69.00
2022-08-03T18:55:19.841Z,69.60
2022-08-03T18:58:18.368Z,69.40
2022-08-03T19:00:58.454Z,69.50
2022-08-03T19:03:43.067Z,69.90
2022-08-03T19:06:19.859Z,70.40
2022-08-03T19:09:09.613Z,70.70
2022-08-03T19:12:13.982Z,70.60
2022-08-03T19:14:44.507Z,70.70
2022-08-03T19:17:13.259Z,70.90
2022-08-03T19:19:46.284Z,71.30
2022-08-03T19:22:16.257Z,71.60
2022-08-03T19:24:46.528Z,71.80
2022-08-03T19:27:14.205Z,72.30
2022-08-03T19:29:59.436Z,72.50
2022-08-03T19:32:31.887Z,72.80
2022-08-03T19:35:00.888Z,72.90
2022-08-03T19:37:38.292Z,73.30
2022-08-03T19:40:10.758Z,73.60
2022-08-03T19:42:43.388Z,73.60
2022-08-03T19:45:15.211Z,73.90
2022-08-03T19:47:48.028Z,74.00
2022-08-03T19:50:15.858Z,73.80
2022-08-03T19:52:46.721Z,73.80
2022-08-03T19:55:15.680Z,74.00
2022-08-03T19:57:45.599Z,74.30
2022-08-03T20:00:13.938Z,74.50
2022-08-03T20:02:41.457Z,74.50
2022-08-03T20:05:14.837Z,74.70
2022-08-03T20:07:42.640Z,74.70
2022-08-03T20:10:15.938Z,75.30
2022-08-03T20:12:44.586Z,75.20
2022-08-03T20:15:11.620Z,75.40
2022-08-03T20:17:55.994Z,75.60
2022-08-03T20:20:30.735Z,76.20
2022-08-03T20:22:59.229Z,76.30
2022-08-03T20:25:38.885Z,76.60
2022-08-03T20:28:13.590Z,76.80
2022-08-03T20:30:43.725Z,76.90
2022-08-03T20:33:10.665Z,76.90
2022-08-03T20:35:37.478Z,76.80
2022-08-03T20:38:04.157Z,76.90
2022-08-03T20:40:34.032Z,78.20
2022-08-03T20:43:01.614Z,77.50
2022-08-03T20:46:00.598Z,77.60
2022-08-03T20:48:18.026Z,77.90
2022-08-03T20:50:49.433Z,77.90
2022-08-03T20:53:41.373Z,77.90
2022-08-03T20:56:04.141Z,78.30
2022-08-03T20:58:32.533Z,78.70
2022-08-03T21:01:00.068Z,78.90
2022-08-03T21:03:41.046Z,78.70
2022-08-03T21:06:17.834Z,78.40
2022-08-03T21:09:00.344Z,78.90
2022-08-03T21:11:41.828Z,78.70
2022-08-03T21:14:37.903Z,78.90
2022-08-03T21:17:14.130Z,78.80
2022-08-03T21:19:52.128Z,79.10
2022-08-03T21:22:22.540Z,79.40
2022-08-03T21:24:55.867Z,79.80
2022-08-03T21:27:23.951Z,80.00
2022-08-03T21:29:53.001Z,80.10
2022-08-03T21:32:32.847Z,80.10
2022-08-03T21:35:00.678Z,80.00
2022-08-03T21:37:28.507Z,80.10
2022-08-03T21:39:56.183Z,80.30
2022-08-03T21:42:24.075Z,80.50
2022-08-03T21:44:54.341Z,80.80
2022-08-03T21:47:22.700Z,81.10
2022-08-03T21:50:08.385Z,81.70
2022-08-03T21:52:40.592Z,81.40
2022-08-03T21:55:07.788Z,81.80
2022-08-03T21:57:38.274Z,81.70
2022-08-03T22:00:12.145Z,82.10
2022-08-03T22:02:42.823Z,82.10
2022-08-03T22:05:09.861Z,82.10
2022-08-03T22:07:43.167Z,82.30
2022-08-03T22:10:11.123Z,82.90
2022-08-03T22:12:38.949Z,82.70
2022-08-03T22:15:09.365Z,83.00
2022-08-03T22:17:55.811Z,83.00
2022-08-03T22:20:24.719Z,82.90
2022-08-03T22:22:56.609Z,83.00
2022-08-03T22:25:28.505Z,82.80
2022-08-03T22:27:55.554Z,82.90
2022-08-03T22:30:22.303Z,83.00
2022-08-03T22:32:51.825Z,83.30
2022-08-03T22:35:21.059Z,83.40
2022-08-03T22:37:52.276Z,83.80
2022-08-03T22:40:19.644Z,84.20
2022-08-03T22:42:49.355Z,84.30
2022-08-03T22:46:08.486Z,84.40
2022-08-03T22:48:07.234Z,84.60
2022-08-03T22:50:34.620Z,84.50
2022-08-03T22:53:01.792Z,84.20
2022-08-03T22:55:28.583Z,84.70
2022-08-03T22:57:55.529Z,84.80
2022-08-03T23:00:23.604Z,85.00
2022-08-03T23:02:53.581Z,84.70
2022-08-03T23:06:01.019Z,84.80
2022-08-03T23:08:15.968Z,84.70
2022-08-03T23:10:47.222Z,84.80
2022-08-03T23:13:17.512Z,85.10
2022-08-03T23:15:51.546Z,85.30
2022-08-03T23:18:20.783Z,85.70
2022-08-03T23:20:51.777Z,85.90
2022-08-03T23:23:19.802Z,85.90
2022-08-03T23:25:49.507Z,85.90
2022-08-03T23:28:16.796Z,86.30
2022-08-03T23:30:44.714Z,86.20
2022-08-03T23:33:16.306Z,86.70
2022-08-03T23:36:17.213Z,87.50
2022-08-03T23:38:48.369Z,88.00
2022-08-03T23:41:17.466Z,88.50
2022-08-03T23:43:51.723Z,88.80
2022-08-03T23:46:22.056Z,89.80
2022-08-03T23:48:49.374Z,89.90
2022-08-03T23:51:25.442Z,89.50
2022-08-03T23:54:02.107Z,89.50
2022-08-03T23:56:44.267Z,89.50
2022-08-03T23:59:35.941Z,89.30
